createdAt,value
2022-08-02T00:00:42.107Z,2.88
2022-08-02T00:03:10.120Z,3.00
2022-08-02T00:05:38.276Z,3.13
2022-08-02T00:08:08.613Z,3.00
2022-08-02T00:10:36.630Z,3.30
2022-08-02T00:13:04.799Z,3.10
2022-08-02T00:15:34.154Z,3.28
2022-08-02T00:18:02.242Z,2.92
2022-08-02T00:20:30.403Z,3.63
2022-08-02T00:22:58.698Z,3.22
2022-08-02T00:25:26.690Z,2.95
2022-08-02T00:27:54.723Z,3.30
2022-08-02T00:30:22.938Z,3.42
2022-08-02T00:32:52.324Z,3.33
2022-08-02T00:35:20.426Z,3.38
2022-08-02T00:37:48.506Z,3.22
2022-08-02T00:40:16.537Z,3.05
2022-08-02T00:42:45.160Z,4.25
2022-08-02T00:45:13.164Z,3.53
2022-08-02T00:47:41.220Z,3.78
2022-08-02T00:50:11.243Z,3.70
2022-08-02T00:52:39.255Z,3.58
2022-08-02T00:55:08.036Z,3.97
2022-08-02T00:57:37.077Z,3.20
2022-08-02T01:00:09.835Z,3.90
2022-08-02T01:02:37.907Z,4.38
2022-08-02T01:05:06.757Z,3.88
2022-08-02T01:07:36.584Z,3.63
2022-08-02T01:10:05.260Z,3.75
2022-08-02T01:12:33.409Z,3.42
2022-08-02T01:15:08.847Z,4.20
2022-08-02T01:17:45.189Z,3.55
2022-08-02T01:20:26.120Z,4.00
2022-08-02T01:23:10.500Z,4.18
2022-08-02T01:25:54.506Z,3.87
2022-08-02T01:28:35.982Z,3.53
2022-08-02T01:31:11.272Z,4.10
2022-08-02T01:33:44.080Z,4.00
2022-08-02T01:36:15.070Z,4.00
2022-08-02T01:38:48.215Z,3.78
2022-08-02T01:41:19.919Z,4.40
2022-08-02T01:43:52.614Z,4.03
2022-08-02T01:46:22.395Z,4.38
2022-08-02T01:48:54.572Z,3.97
2022-08-02T01:51:45.028Z,4.27
2022-08-02T01:54:18.505Z,3.77
2022-08-02T01:56:48.058Z,4.07
2022-08-02T01:59:20.187Z,3.55
2022-08-02T02:01:50.478Z,4.77
2022-08-02T02:04:19.187Z,4.20
2022-08-02T02:06:48.743Z,4.30
2022-08-02T02:09:18.333Z,3.57
2022-08-02T02:12:05.886Z,4.13
2022-08-02T02:14:39.423Z,4.23
2022-08-02T02:17:09.272Z,4.30
2022-08-02T02:20:01.146Z,4.10
2022-08-02T02:22:29.245Z,3.90
2022-08-02T02:24:57.423Z,4.20
2022-08-02T02:27:26.590Z,3.77
2022-08-02T02:29:57.628Z,4.00
2022-08-02T02:32:28.466Z,3.93
2022-08-02T02:34:57.766Z,3.90
2022-08-02T02:37:28.227Z,4.13
2022-08-02T02:39:58.160Z,4.27
2022-08-02T02:42:31.214Z,4.17
2022-08-02T02:45:01.950Z,3.90
2022-08-02T02:47:40.722Z,3.87
2022-08-02T02:50:11.855Z,4.23
2022-08-02T02:52:41.472Z,4.53
2022-08-02T02:55:10.675Z,4.30
2022-08-02T02:57:40.021Z,4.03
2022-08-02T03:00:12.322Z,3.70
2022-08-02T03:02:41.537Z,3.90
2022-08-02T03:05:11.204Z,4.50
2022-08-02T03:07:40.259Z,4.40
2022-08-02T03:10:09.505Z,3.77
2022-08-02T03:12:38.185Z,4.17
2022-08-02T03:15:09.441Z,4.00
2022-08-02T03:17:42.260Z,4.20
2022-08-02T03:20:12.929Z,4.00
2022-08-02T03:22:41.424Z,4.33
2022-08-02T03:25:10.646Z,4.83
2022-08-02T03:27:38.989Z,4.03
2022-08-02T03:30:10.390Z,4.33
2022-08-02T03:32:41.013Z,4.20
2022-08-02T03:35:12.118Z,4.30
2022-08-02T03:37:41.299Z,4.20
2022-08-02T03:40:12.685Z,4.90
2022-08-02T03:42:41.463Z,4.57
2022-08-02T03:45:13.458Z,3.67
2022-08-02T03:47:42.744Z,3.60
2022-08-02T03:50:13.685Z,4.10
2022-08-02T03:52:43.461Z,4.20
2022-08-02T03:55:12.683Z,3.93
2022-08-02T03:57:41.129Z,3.97
2022-08-02T04:00:13.042Z,4.07
2022-08-02T04:02:41.227Z,4.33
2022-08-02T04:05:09.864Z,5.10
2022-08-02T04:08:33.716Z,4.13
2022-08-02T04:10:25.972Z,4.80
2022-08-02T04:12:54.274Z,4.93
2022-08-02T04:15:24.861Z,4.47
2022-08-02T04:17:57.596Z,5.03
2022-08-02T04:20:31.083Z,4.23
2022-08-02T04:23:04.159Z,4.57
2022-08-02T04:25:40.258Z,4.33
2022-08-02T04:28:17.347Z,4.35
2022-08-02T04:30:48.551Z,4.50
2022-08-02T04:33:17.592Z,4.00
2022-08-02T04:35:46.364Z,4.27
2022-08-02T04:38:15.915Z,4.50
2022-08-02T04:40:52.842Z,4.07
2022-08-02T04:43:21.359Z,4.50
2022-08-02T04:45:54.150Z,3.75
2022-08-02T04:48:23.202Z,3.40
2022-08-02T04:50:52.057Z,3.20
2022-08-02T04:53:20.265Z,3.08
2022-08-02T04:55:48.755Z,3.08
2022-08-02T05:01:06.446Z,2.97
2022-08-02T05:03:34.522Z,2.80
2022-08-02T05:06:02.499Z,3.25
2022-08-02T05:08:30.600Z,2.90
2022-08-02T05:10:58.601Z,3.22
2022-08-02T05:13:26.782Z,2.78
2022-08-02T05:15:54.787Z,2.72
2022-08-02T05:18:24.199Z,2.42
2022-08-02T05:20:57.817Z,3.00
2022-08-02T05:23:26.447Z,2.85
2022-08-02T05:25:54.559Z,3.10
2022-08-02T05:28:22.906Z,2.75
2022-08-02T05:30:50.908Z,3.47
2022-08-02T05:33:18.990Z,3.00
2022-08-02T05:35:48.354Z,2.85
2022-08-02T05:38:16.385Z,3.10
2022-08-02T05:40:55.087Z,3.15
2022-08-02T05:43:24.346Z,3.20
2022-08-02T05:45:54.525Z,3.00
2022-08-02T05:48:26.536Z,3.17
2022-08-02T05:51:05.386Z,2.83
2022-08-02T05:53:40.087Z,2.58
2022-08-02T05:56:18.979Z,2.13
2022-08-02T05:58:52.289Z,3.00
2022-08-02T06:01:33.580Z,3.47
2022-08-02T06:04:03.080Z,2.72
2022-08-02T06:06:34.349Z,2.60
2022-08-02T06:09:11.402Z,2.40
2022-08-02T06:11:40.915Z,2.80
2022-08-02T06:14:09.697Z,2.67
2022-08-02T06:16:42.416Z,2.40
2022-08-02T06:19:14.154Z,3.00
2022-08-02T06:22:30.574Z,3.00
2022-08-02T06:24:34.251Z,2.95
2022-08-02T06:27:03.910Z,2.67
2022-08-02T06:29:38.469Z,3.20
2022-08-02T06:32:08.977Z,3.20
2022-08-02T06:34:39.135Z,2.83
2022-08-02T06:37:15.956Z,2.92
2022-08-02T06:39:47.517Z,3.30
2022-08-02T06:42:26.813Z,2.92
2022-08-02T06:44:57.716Z,2.90
2022-08-02T06:47:26.552Z,3.08
2022-08-02T06:49:55.055Z,3.65
2022-08-02T06:52:30.345Z,3.50
2022-08-02T06:55:00.682Z,3.65
2022-08-02T06:57:29.447Z,3.20
2022-08-02T06:59:58.487Z,4.07
2022-08-02T07:02:26.736Z,3.90
2022-08-02T07:04:55.458Z,3.30
2022-08-02T07:07:23.589Z,3.47
2022-08-02T07:09:56.783Z,3.50
2022-08-02T07:12:30.318Z,3.25
2022-08-02T07:14:58.779Z,3.58
2022-08-02T07:17:26.831Z,3.30
2022-08-02T07:19:54.934Z,3.10
2022-08-02T07:22:23.666Z,2.92
2022-08-02T07:24:53.331Z,3.50
2022-08-02T07:27:21.738Z,2.78
2022-08-02T07:29:49.998Z,2.83
2022-08-02T07:32:18.977Z,2.80
2022-08-02T07:34:52.742Z,3.13
2022-08-02T07:37:35.993Z,3.10
2022-08-02T07:40:15.140Z,3.20
2022-08-02T07:42:48.815Z,2.67
2022-08-02T07:45:16.974Z,2.60
2022-08-02T07:47:45.997Z,2.30
2022-08-02T07:50:15.583Z,2.20
2022-08-02T07:52:44.682Z,2.35
2022-08-02T07:55:15.993Z,2.08
2022-08-02T07:57:46.565Z,2.35
2022-08-02T08:00:17.231Z,2.80
2022-08-02T08:02:46.271Z,2.90
2022-08-02T08:05:14.902Z,3.30
2022-08-02T08:07:42.958Z,3.08
2022-08-02T08:10:13.057Z,3.60
2022-08-02T08:12:41.087Z,3.92
2022-08-02T08:15:10.214Z,3.30
2022-08-02T08:17:38.911Z,4.13
2022-08-02T08:20:08.874Z,3.25
2022-08-02T08:22:38.873Z,3.08
2022-08-02T08:25:07.441Z,3.03
2022-08-02T08:27:37.370Z,3.25
2022-08-02T08:30:05.934Z,2.70
2022-08-02T08:32:34.036Z,3.70
2022-08-02T08:35:03.676Z,3.25
2022-08-02T08:37:35.465Z,2.97
2022-08-02T08:40:05.041Z,2.88
2022-08-02T08:42:33.457Z,2.80
2022-08-02T08:45:03.474Z,3.47
2022-08-02T08:47:36.336Z,2.97
2022-08-02T08:50:06.719Z,2.78
2022-08-02T08:52:41.063Z,3.15
2022-08-02T08:55:11.831Z,3.20
2022-08-02T08:57:42.711Z,2.70
2022-08-02T09:00:14.010Z,3.20
2022-08-02T09:02:43.421Z,3.30
2022-08-02T09:05:12.662Z,2.92
2022-08-02T09:07:42.782Z,2.97
2022-08-02T09:10:37.514Z,3.03
2022-08-02T09:13:37.957Z,2.63
2022-08-02T09:16:12.209Z,2.30
2022-08-02T09:18:45.341Z,2.20
2022-08-02T09:21:15.055Z,2.00
2022-08-02T09:23:44.828Z,1.95
2022-08-02T09:26:14.673Z,1.80
2022-08-02T09:28:43.896Z,2.20
2022-08-02T09:31:15.762Z,2.05
2022-08-02T09:33:46.408Z,2.10
2022-08-02T09:36:16.662Z,2.17
2022-08-02T09:38:54.728Z,2.33
2022-08-02T09:41:23.867Z,2.25
2022-08-02T09:44:05.310Z,2.33
2022-08-02T09:46:38.886Z,2.35
2022-08-02T09:49:09.762Z,2.75
2022-08-02T09:51:39.392Z,2.50
2022-08-02T09:54:11.930Z,2.50
2022-08-02T09:56:46.367Z,2.50
2022-08-02T09:59:15.892Z,2.38
2022-08-02T10:01:51.628Z,2.50
2022-08-02T10:04:30.433Z,2.33
2022-08-02T10:07:03.820Z,2.42
2022-08-02T10:09:32.815Z,2.50
2022-08-02T10:12:01.664Z,2.03
2022-08-02T10:14:31.847Z,2.20
2022-08-02T10:17:01.667Z,2.30
2022-08-02T10:20:01.120Z,2.53
2022-08-02T10:22:19.902Z,2.40
2022-08-02T10:24:48.902Z,2.30
2022-08-02T10:27:20.045Z,2.55
2022-08-02T10:29:55.030Z,2.20
2022-08-02T10:32:30.977Z,2.58
2022-08-02T10:35:18.538Z,2.22
2022-08-02T10:37:54.644Z,2.42
2022-08-02T10:40:26.859Z,2.42
2022-08-02T10:42:59.327Z,2.05
2022-08-02T10:45:28.877Z,2.45
2022-08-02T10:48:09.511Z,2.40
2022-08-02T10:50:56.415Z,2.38
2022-08-02T10:53:29.796Z,2.10
2022-08-02T10:55:59.395Z,2.20
2022-08-02T10:58:30.213Z,2.10
2022-08-02T11:00:59.932Z,2.45
2022-08-02T11:03:41.661Z,2.47
2022-08-02T11:06:25.461Z,2.05
2022-08-02T11:09:33.413Z,2.10
2022-08-02T11:12:03.929Z,2.15
2022-08-02T11:14:33.122Z,2.15
2022-08-02T11:17:15.599Z,2.42
2022-08-02T11:20:18.022Z,2.25
2022-08-02T11:22:47.473Z,2.15
2022-08-02T11:26:02.647Z,2.50
2022-08-02T11:28:26.292Z,2.42
2022-08-02T11:30:58.902Z,2.30
2022-08-02T11:33:32.943Z,2.20
2022-08-02T11:36:07.255Z,2.42
2022-08-02T11:38:35.436Z,2.05
2022-08-02T11:41:09.573Z,2.10
2022-08-02T11:43:38.430Z,2.78
2022-08-02T11:46:13.860Z,2.50
2022-08-02T11:48:44.190Z,2.20
2022-08-02T11:51:15.256Z,2.30
2022-08-02T11:53:46.091Z,2.28
2022-08-02T11:56:21.905Z,2.20
2022-08-02T11:59:04.044Z,2.60
2022-08-02T12:01:35.217Z,2.50
2022-08-02T12:04:13.242Z,2.20
2022-08-02T12:06:42.672Z,2.60
2022-08-02T12:09:18.653Z,2.35
2022-08-02T12:11:50.328Z,2.40
2022-08-02T12:14:19.062Z,2.20
2022-08-02T12:17:05.083Z,2.38
2022-08-02T12:19:33.408Z,2.40
2022-08-02T12:22:15.373Z,2.20
2022-08-02T12:24:47.511Z,2.47
2022-08-02T12:27:32.479Z,2.17
2022-08-02T12:30:03.470Z,2.53
2022-08-02T12:32:31.904Z,2.55
2022-08-02T12:35:14.804Z,2.15
2022-08-02T12:37:56.602Z,2.40
2022-08-02T12:40:27.139Z,2.38
2022-08-02T12:42:58.470Z,2.40
2022-08-02T12:45:36.566Z,2.40
2022-08-02T12:48:09.578Z,2.33
2022-08-02T12:50:38.697Z,2.30
2022-08-02T12:53:10.757Z,2.38
2022-08-02T12:56:02.482Z,2.30
2022-08-02T12:58:32.088Z,2.60
2022-08-02T13:01:01.224Z,2.50
2022-08-02T13:04:10.850Z,2.20
2022-08-02T13:09:16.029Z,2.20
2022-08-02T13:11:44.711Z,2.40
2022-08-02T13:14:14.348Z,2.00
2022-08-02T13:16:43.831Z,2.28
2022-08-02T13:19:13.066Z,2.10
2022-08-02T13:22:02.034Z,2.10
2022-08-02T13:24:40.594Z,2.10
2022-08-02T13:27:20.539Z,2.10
2022-08-02T13:29:49.175Z,2.05
2022-08-02T13:32:17.638Z,2.30
2022-08-02T13:34:45.937Z,2.42
2022-08-02T13:37:14.167Z,2.08
2022-08-02T13:39:55.324Z,2.10
2022-08-02T13:42:32.239Z,2.05
2022-08-02T13:45:00.241Z,2.20
2022-08-02T13:48:04.697Z,2.40
2022-08-02T13:50:30.232Z,2.08
2022-08-02T13:52:58.283Z,2.20
2022-08-02T13:55:28.139Z,2.13
2022-08-02T13:57:56.252Z,2.20
2022-08-02T14:00:35.781Z,2.28
2022-08-02T14:03:05.604Z,2.30
2022-08-02T14:05:40.602Z,2.20
2022-08-02T14:08:17.940Z,2.17
2022-08-02T14:10:48.170Z,2.30
2022-08-02T14:13:16.826Z,2.30
2022-08-02T14:15:45.265Z,2.30
2022-08-02T14:18:14.823Z,2.15
2022-08-02T14:20:43.158Z,2.10
2022-08-02T14:23:11.193Z,2.22
2022-08-02T14:25:39.211Z,2.35
2022-08-02T14:28:09.284Z,2.40
2022-08-02T14:30:37.379Z,2.55
2022-08-02T14:33:05.542Z,2.05
2022-08-02T14:35:34.031Z,2.30
2022-08-02T14:38:02.187Z,2.10
2022-08-02T14:40:31.610Z,2.20
2022-08-02T14:43:00.560Z,2.10
2022-08-02T14:45:40.427Z,2.08
2022-08-02T14:48:10.938Z,2.10
2022-08-02T14:50:40.518Z,2.38
2022-08-02T14:53:11.967Z,2.20
2022-08-02T14:55:41.488Z,2.20
2022-08-02T14:58:10.399Z,2.30
2022-08-02T15:00:41.605Z,1.80
2022-08-02T15:03:11.383Z,1.98
2022-08-02T15:05:39.587Z,2.13
2022-08-02T15:08:07.956Z,2.70
2022-08-02T15:10:36.051Z,2.00
2022-08-02T15:13:04.412Z,2.30
2022-08-02T15:15:33.028Z,2.38
2022-08-02T15:18:13.213Z,2.10
2022-08-02T15:20:41.563Z,2.25
2022-08-02T15:23:14.655Z,2.20
2022-08-02T15:25:43.919Z,2.10
2022-08-02T15:28:11.980Z,2.10
2022-08-02T15:30:40.315Z,2.20
2022-08-02T15:33:08.409Z,2.33
2022-08-02T15:35:37.787Z,2.05
2022-08-02T15:38:05.910Z,2.00
2022-08-02T15:40:33.912Z,1.90
2022-08-02T15:43:01.935Z,1.90
2022-08-02T15:45:29.940Z,1.90
2022-08-02T15:47:58.056Z,1.98
2022-08-02T15:50:26.054Z,2.03
2022-08-02T15:52:55.432Z,1.98
2022-08-02T15:55:23.428Z,2.10
2022-08-02T15:57:51.454Z,2.28
2022-08-02T16:00:20.488Z,2.05
2022-08-02T16:02:48.537Z,2.00
2022-08-02T16:05:18.313Z,1.90
2022-08-02T16:07:46.687Z,2.00
2022-08-02T16:10:17.443Z,2.10
2022-08-02T16:12:45.578Z,2.08
2022-08-02T16:15:13.654Z,2.25
2022-08-02T16:17:48.791Z,2.03
2022-08-02T16:20:22.263Z,1.85
2022-08-02T16:22:50.309Z,1.98
2022-08-02T16:25:19.794Z,1.95
2022-08-02T16:28:05.868Z,2.28
2022-08-02T16:30:35.844Z,1.90
2022-08-02T16:33:03.957Z,2.40
2022-08-02T16:35:32.035Z,2.30
2022-08-02T16:38:00.043Z,2.40
2022-08-02T16:40:30.006Z,2.05
2022-08-02T16:42:58.022Z,1.80
2022-08-02T16:45:28.431Z,2.08
2022-08-02T16:48:03.789Z,2.28
2022-08-02T16:50:34.214Z,1.92
2022-08-02T16:53:07.123Z,1.85
2022-08-02T16:55:37.612Z,2.05
2022-08-02T16:58:09.719Z,2.25
2022-08-02T17:00:38.325Z,2.13
2022-08-02T17:03:14.621Z,2.03
2022-08-02T17:05:55.982Z,2.03
2022-08-02T17:08:32.203Z,1.98
2022-08-02T17:11:03.617Z,1.80
2022-08-02T17:13:34.410Z,1.80
2022-08-02T17:16:25.872Z,2.10
2022-08-02T17:18:55.468Z,1.92
2022-08-02T17:21:23.749Z,2.00
2022-08-02T17:24:08.180Z,2.15
2022-08-02T17:26:39.062Z,1.90
2022-08-02T17:29:15.185Z,2.00
2022-08-02T17:32:05.258Z,2.08
2022-08-02T17:34:33.485Z,2.10
2022-08-02T17:37:01.943Z,2.20
2022-08-02T17:39:34.614Z,2.50
2022-08-02T17:42:15.365Z,2.30
2022-08-02T17:44:49.207Z,2.08
2022-08-02T17:47:17.819Z,2.40
2022-08-02T17:49:48.525Z,2.13
2022-08-02T17:55:05.542Z,2.17
2022-08-02T17:57:56.116Z,2.10
2022-08-02T18:00:24.651Z,2.50
2022-08-02T18:02:55.524Z,2.33
2022-08-02T18:08:14.053Z,2.55
2022-08-02T18:10:43.298Z,2.10
2022-08-02T18:13:13.556Z,2.33
2022-08-02T18:15:45.496Z,2.35
2022-08-02T18:18:31.489Z,2.35
2022-08-02T18:21:15.613Z,2.30
2022-08-02T18:23:49.485Z,2.50
2022-08-02T18:26:17.787Z,2.20
2022-08-02T18:28:50.486Z,2.45
2022-08-02T18:31:22.829Z,2.40
2022-08-02T18:33:55.320Z,2.40
2022-08-02T18:36:29.242Z,2.97
2022-08-02T18:38:57.319Z,2.70
2022-08-02T18:41:25.398Z,2.90
2022-08-02T18:43:58.146Z,2.75
2022-08-02T18:46:30.176Z,3.53
2022-08-02T18:49:06.684Z,2.85
2022-08-02T18:51:43.028Z,2.72
2022-08-02T18:54:11.086Z,2.90
2022-08-02T18:56:39.768Z,2.88
2022-08-02T18:59:10.255Z,2.83
2022-08-02T19:01:48.653Z,2.58
2022-08-02T19:04:27.872Z,2.30
2022-08-02T19:07:07.160Z,2.60
2022-08-02T19:09:39.912Z,2.80
2022-08-02T19:12:11.645Z,2.70
2022-08-02T19:14:41.497Z,3.20
2022-08-02T19:19:58.562Z,2.58
2022-08-02T19:22:27.412Z,2.60
2022-08-02T19:25:00.126Z,2.30
2022-08-02T19:27:32.897Z,2.45
2022-08-02T19:30:04.043Z,2.45
2022-08-02T19:32:40.198Z,2.70
2022-08-02T19:38:09.353Z,2.60
2022-08-02T19:40:38.782Z,2.72
2022-08-02T19:44:20.896Z,2.40
2022-08-02T19:45:57.457Z,3.47
2022-08-02T19:48:27.132Z,2.70
2022-08-02T19:51:00.797Z,2.92
2022-08-02T19:53:47.211Z,3.13
2022-08-02T19:56:20.429Z,2.75
2022-08-02T19:58:51.438Z,2.67
2022-08-02T20:01:28.297Z,2.90
2022-08-02T20:04:06.790Z,3.00
2022-08-02T20:06:34.835Z,3.30
2022-08-02T20:09:04.005Z,2.95
2022-08-02T20:11:34.931Z,3.10
2022-08-02T20:14:04.094Z,2.67
2022-08-02T20:16:34.161Z,2.90
2022-08-02T20:19:02.798Z,2.80
2022-08-02T20:21:36.602Z,3.15
2022-08-02T20:24:06.706Z,3.00
2022-08-02T20:26:35.157Z,2.70
2022-08-02T20:29:04.528Z,3.05
2022-08-02T20:31:35.466Z,3.22
2022-08-02T20:34:03.744Z,3.08
2022-08-02T20:36:31.788Z,2.90
2022-08-02T20:38:59.819Z,2.92
2022-08-02T20:41:36.945Z,3.17
2022-08-02T20:44:15.911Z,3.08
2022-08-02T20:46:59.457Z,3.00
2022-08-02T20:49:41.471Z,2.88
2022-08-02T20:52:23.324Z,3.20
2022-08-02T20:54:52.834Z,3.03
2022-08-02T20:57:48.909Z,2.90
2022-08-02T21:00:11.630Z,3.70
2022-08-02T21:02:41.242Z,3.03
2022-08-02T21:05:17.418Z,3.10
2022-08-02T21:10:35.703Z,3.03
2022-08-02T21:13:18.541Z,3.10
2022-08-02T21:15:47.240Z,3.08
2022-08-02T21:18:23.883Z,3.30
2022-08-02T21:20:58.046Z,3.40
2022-08-02T21:23:26.170Z,3.10
2022-08-02T21:25:57.149Z,3.10
2022-08-02T21:28:34.952Z,3.00
2022-08-02T21:31:12.140Z,3.03
2022-08-02T21:33:57.848Z,3.03
2022-08-02T21:36:30.610Z,2.90
2022-08-02T21:39:04.490Z,3.00
2022-08-02T21:41:39.032Z,2.88
2022-08-02T21:44:15.649Z,3.55
2022-08-02T21:46:45.172Z,3.30
2022-08-02T21:49:14.939Z,3.10
2022-08-02T21:51:49.177Z,3.08
2022-08-02T21:54:20.354Z,3.35
2022-08-02T21:56:49.994Z,3.10
2022-08-02T21:59:26.086Z,3.35
2022-08-02T22:01:56.950Z,2.88
2022-08-02T22:04:27.585Z,3.20
2022-08-02T22:06:55.837Z,3.00
2022-08-02T22:09:44.685Z,3.03
2022-08-02T22:12:17.584Z,3.20
2022-08-02T22:14:54.005Z,3.50
2022-08-02T22:20:14.551Z,3.40
2022-08-02T22:22:48.239Z,3.30
2022-08-02T22:25:27.171Z,3.30
2022-08-02T22:28:37.471Z,3.50
2022-08-02T22:30:54.390Z,3.42
2022-08-02T22:33:42.208Z,3.40
2022-08-02T22:36:16.095Z,3.42
2022-08-02T22:38:44.850Z,3.20
2022-08-02T22:41:13.598Z,3.40
2022-08-02T22:43:41.702Z,3.60
2022-08-02T22:46:10.392Z,3.65
2022-08-02T22:48:44.009Z,3.70
2022-08-02T22:51:12.664Z,3.38
2022-08-02T22:53:43.463Z,3.45
2022-08-02T22:56:12.122Z,3.40
2022-08-02T22:58:41.049Z,2.30
2022-08-02T22:58:43.166Z,2.53
2022-08-02T22:58:47.514Z,2.75
2022-08-02T22:58:52.376Z,2.50
2022-08-02T22:59:01.821Z,3.20
2022-08-02T22:59:12.607Z,3.60
2022-08-02T23:01:28.437Z,3.63
2022-08-02T23:03:56.510Z,3.67
2022-08-02T23:06:24.658Z,3.10
2022-08-02T23:08:54.128Z,3.50
2022-08-02T23:11:23.177Z,3.90
2022-08-02T23:13:51.330Z,3.33
2022-08-02T23:16:39.470Z,3.50
2022-08-02T23:19:25.143Z,3.78
2022-08-02T23:22:02.442Z,3.78
2022-08-02T23:24:33.886Z,3.90
2022-08-02T23:27:02.226Z,3.88
2022-08-02T23:29:30.394Z,3.45
2022-08-02T23:31:59.035Z,3.58
2022-08-02T23:34:27.225Z,3.45
2022-08-02T23:36:55.296Z,3.70
2022-08-02T23:39:23.442Z,3.53
2022-08-02T23:41:54.924Z,3.95
2022-08-02T23:44:24.127Z,3.40
2022-08-02T23:46:52.748Z,3.67
2022-08-02T23:49:21.454Z,3.60
2022-08-02T23:51:50.387Z,3.55
2022-08-02T23:54:19.163Z,3.65
2022-08-02T23:56:47.699Z,3.53
2022-08-02T23:59:17.420Z,3.85
